sensor_id;sensor_type;location;lat;lon;timestamp;P1;durP1;ratioP1;P2;durP2;ratioP2
47882;SDS011;37739;50.350;7.578;2023-03-01T00:02:16;10.17;;;8.87;;
47882;SDS011;37739;50.350;7.578;2023-03-01T00:04:41;8.33;;;7.50;;
47882;SDS011;37739;50.350;7.578;2023-03-01T00:07:06;10.97;;;8.10;;
47882;SDS011;37739;50.350;7.578;2023-03-01T00:09:32;8.83;;;8.00;;
47882;SDS011;37739;50.350;7.578;2023-03-01T00:11:57;8.70;;;7.87;;
47882;SDS011;37739;50.350;7.578;2023-03-01T00:14:22;8.73;;;7.93;;
47882;SDS011;37739;50.350;7.578;2023-03-01T00:16:51;7.13;;;6.50;;
47882;SDS011;37739;50.350;7.578;2023-03-01T00:19:17;9.07;;;8.13;;
47882;SDS011;37739;50.350;7.578;2023-03-01T00:21:48;9.03;;;8.13;;
47882;SDS011;37739;50.350;7.578;2023-03-01T00:24:16;7.40;;;6.70;;
47882;SDS011;37739;50.350;7.578;2023-03-01T00:26:41;8.57;;;7.77;;
47882;SDS011;37739;50.350;7.578;2023-03-01T00:29:07;8.30;;;7.50;;
47882;SDS011;37739;50.350;7.578;2023-03-01T00:31:33;9.20;;;8.03;;
47882;SDS011;37739;50.350;7.578;2023-03-01T00:34:02;8.40;;;7.47;;
47882;SDS011;37739;50.350;7.578;2023-03-01T00:36:30;9.83;;;8.17;;
47882;SDS011;37739;50.350;7.578;2023-03-01T00:38:57;10.30;;;8.50;;
47882;SDS011;37739;50.350;7.578;2023-03-01T00:41:23;9.27;;;8.37;;
47882;SDS011;37739;50.350;7.578;2023-03-01T00:43:54;9.23;;;8.33;;
47882;SDS011;37739;50.350;7.578;2023-03-01T00:46:21;8.80;;;7.90;;
47882;SDS011;37739;50.350;7.578;2023-03-01T00:48:51;9.23;;;8.33;;
47882;SDS011;37739;50.350;7.578;2023-03-01T00:51:20;10.10;;;8.07;;
47882;SDS011;37739;50.350;7.578;2023-03-01T00:53:54;8.50;;;7.53;;
47882;SDS011;37739;50.350;7.578;2023-03-01T00:56:21;9.00;;;8.10;;
47882;SDS011;37739;50.350;7.578;2023-03-01T00:58:47;9.13;;;7.93;;
47882;SDS011;37739;50.350;7.578;2023-03-01T01:01:16;7.93;;;7.20;;
47882;SDS011;37739;50.350;7.578;2023-03-01T01:03:52;8.10;;;7.30;;
47882;SDS011;37739;50.350;7.578;2023-03-01T01:06:31;9.43;;;8.50;;
47882;SDS011;37739;50.350;7.578;2023-03-01T01:09:02;8.13;;;7.17;;
47882;SDS011;37739;50.350;7.578;2023-03-01T01:11:30;7.90;;;7.20;;
47882;SDS011;37739;50.350;7.578;2023-03-01T01:13:56;8.43;;;6.23;;
47882;SDS011;37739;50.350;7.578;2023-03-01T01:16:23;8.17;;;7.37;;
47882;SDS011;37739;50.350;7.578;2023-03-01T01:18:51;7.63;;;6.93;;
47882;SDS011;37739;50.350;7.578;2023-03-01T01:21:20;7.90;;;7.20;;
47882;SDS011;37739;50.350;7.578;2023-03-01T01:23:49;8.50;;;7.60;;
47882;SDS011;37739;50.350;7.578;2023-03-01T01:26:20;8.50;;;7.70;;
47882;SDS011;37739;50.350;7.578;2023-03-01T01:28:49;9.20;;;8.30;;
47882;SDS011;37739;50.350;7.578;2023-03-01T01:31:15;10.93;;;8.50;;
47882;SDS011;37739;50.350;7.578;2023-03-01T01:33:43;9.03;;;8.13;;
47882;SDS011;37739;50.350;7.578;2023-03-01T01:36:10;9.60;;;8.60;;
47882;SDS011;37739;50.350;7.578;2023-03-01T01:38:36;10.47;;;9.47;;
47882;SDS011;37739;50.350;7.578;2023-03-01T01:41:03;10.93;;;9.50;;
47882;SDS011;37739;50.350;7.578;2023-03-01T01:43:30;8.17;;;7.43;;
47882;SDS011;37739;50.350;7.578;2023-03-01T01:46:02;9.63;;;8.53;;
47882;SDS011;37739;50.350;7.578;2023-03-01T01:48:38;10.40;;;9.27;;
47882;SDS011;37739;50.350;7.578;2023-03-01T01:51:07;9.70;;;8.03;;
47882;SDS011;37739;50.350;7.578;2023-03-01T01:53:39;9.70;;;8.30;;
47882;SDS011;37739;50.350;7.578;2023-03-01T01:56:09;9.03;;;8.13;;
47882;SDS011;37739;50.350;7.578;2023-03-01T01:58:37;9.17;;;7.97;;
47882;SDS011;37739;50.350;7.578;2023-03-01T02:01:06;8.37;;;7.10;;
47882;SDS011;37739;50.350;7.578;2023-03-01T02:03:34;7.73;;;6.97;;
47882;SDS011;37739;50.350;7.578;2023-03-01T02:06:11;11.27;;;10.17;;
47882;SDS011;37739;50.350;7.578;2023-03-01T02:08:47;10.60;;;9.10;;
47882;SDS011;37739;50.350;7.578;2023-03-01T02:11:15;11.00;;;9.87;;
47882;SDS011;37739;50.350;7.578;2023-03-01T02:13:47;9.83;;;8.83;;
47882;SDS011;37739;50.350;7.578;2023-03-01T02:16:16;11.43;;;10.23;;
47882;SDS011;37739;50.350;7.578;2023-03-01T02:18:42;8.10;;;7.33;;
47882;SDS011;37739;50.350;7.578;2023-03-01T02:26:46;9.30;;;8.40;;
47882;SDS011;37739;50.350;7.578;2023-03-01T02:29:17;11.27;;;10.07;;
47882;SDS011;37739;50.350;7.578;2023-03-01T02:31:43;11.00;;;9.93;;
47882;SDS011;37739;50.350;7.578;2023-03-01T02:34:09;9.97;;;8.97;;
47882;SDS011;37739;50.350;7.578;2023-03-01T02:36:47;10.63;;;8.63;;
47882;SDS011;37739;50.350;7.578;2023-03-01T02:39:23;9.00;;;8.13;;
47882;SDS011;37739;50.350;7.578;2023-03-01T02:41:57;6.30;;;5.70;;
47882;SDS011;37739;50.350;7.578;2023-03-01T02:44:24;9.87;;;8.87;;
47882;SDS011;37739;50.350;7.578;2023-03-01T02:46:50;10.03;;;9.00;;
47882;SDS011;37739;50.350;7.578;2023-03-01T02:55:05;8.57;;;7.03;;
47882;SDS011;37739;50.350;7.578;2023-03-01T02:57:34;9.47;;;8.57;;
47882;SDS011;37739;50.350;7.578;2023-03-01T03:00:07;11.33;;;9.50;;
47882;SDS011;37739;50.350;7.578;2023-03-01T03:02:44;9.27;;;8.40;;
47882;SDS011;37739;50.350;7.578;2023-03-01T03:05:16;11.00;;;9.70;;
47882;SDS011;37739;50.350;7.578;2023-03-01T03:07:44;10.50;;;9.40;;
47882;SDS011;37739;50.350;7.578;2023-03-01T03:10:14;10.90;;;9.13;;
47882;SDS011;37739;50.350;7.578;2023-03-01T03:12:44;10.90;;;9.57;;
47882;SDS011;37739;50.350;7.578;2023-03-01T03:15:16;10.10;;;8.53;;
47882;SDS011;37739;50.350;7.578;2023-03-01T03:17:42;11.70;;;10.50;;
47882;SDS011;37739;50.350;7.578;2023-03-01T03:20:09;13.07;;;11.40;;
47882;SDS011;37739;50.350;7.578;2023-03-01T03:22:40;11.77;;;10.47;;
47882;SDS011;37739;50.350;7.578;2023-03-01T03:25:08;12.23;;;10.87;;
47882;SDS011;37739;50.350;7.578;2023-03-01T03:27:37;10.77;;;9.60;;
47882;SDS011;37739;50.350;7.578;2023-03-01T03:30:05;11.50;;;10.30;;
47882;SDS011;37739;50.350;7.578;2023-03-01T03:32:39;11.87;;;10.23;;
47882;SDS011;37739;50.350;7.578;2023-03-01T03:35:08;12.47;;;11.10;;
47882;SDS011;37739;50.350;7.578;2023-03-01T03:37:39;11.77;;;10.60;;
47882;SDS011;37739;50.350;7.578;2023-03-01T03:40:26;11.57;;;10.40;;
47882;SDS011;37739;50.350;7.578;2023-03-01T03:42:54;13.10;;;11.03;;
47882;SDS011;37739;50.350;7.578;2023-03-01T03:45:21;9.40;;;8.40;;
47882;SDS011;37739;50.350;7.578;2023-03-01T03:47:49;12.23;;;10.27;;
47882;SDS011;37739;50.350;7.578;2023-03-01T03:50:19;11.20;;;10.03;;
47882;SDS011;37739;50.350;7.578;2023-03-01T03:52:47;12.80;;;11.23;;
47882;SDS011;37739;50.350;7.578;2023-03-01T03:55:12;11.93;;;10.73;;
47882;SDS011;37739;50.350;7.578;2023-03-01T03:57:38;10.50;;;9.40;;
47882;SDS011;37739;50.350;7.578;2023-03-01T04:00:05;10.40;;;8.30;;
47882;SDS011;37739;50.350;7.578;2023-03-01T04:02:38;10.70;;;9.60;;
47882;SDS011;37739;50.350;7.578;2023-03-01T04:05:08;7.90;;;7.10;;
47882;SDS011;37739;50.350;7.578;2023-03-01T04:07:38;10.63;;;9.10;;
47882;SDS011;37739;50.350;7.578;2023-03-01T04:10:06;9.90;;;8.90;;
47882;SDS011;37739;50.350;7.578;2023-03-01T04:12:35;13.23;;;9.83;;
47882;SDS011;37739;50.350;7.578;2023-03-01T04:15:03;11.97;;;9.93;;
47882;SDS011;37739;50.350;7.578;2023-03-01T04:17:47;9.57;;;8.67;;
47882;SDS011;37739;50.350;7.578;2023-03-01T04:20:17;9.73;;;8.20;;
47882;SDS011;37739;50.350;7.578;2023-03-01T04:22:59;9.43;;;8.53;;
47882;SDS011;37739;50.350;7.578;2023-03-01T04:25:54;10.70;;;9.67;;
47882;SDS011;37739;50.350;7.578;2023-03-01T04:28:31;10.73;;;9.50;;
47882;SDS011;37739;50.350;7.578;2023-03-01T04:31:04;11.90;;;10.10;;
47882;SDS011;37739;50.350;7.578;2023-03-01T04:33:49;9.47;;;8.47;;
47882;SDS011;37739;50.350;7.578;2023-03-01T04:36:17;11.53;;;10.27;;
47882;SDS011;37739;50.350;7.578;2023-03-01T04:38:44;10.80;;;9.70;;
47882;SDS011;37739;50.350;7.578;2023-03-01T04:41:16;7.60;;;6.73;;
47882;SDS011;37739;50.350;7.578;2023-03-01T04:43:45;8.40;;;6.43;;
47882;SDS011;37739;50.350;7.578;2023-03-01T04:46:16;10.53;;;9.53;;
47882;SDS011;37739;50.350;7.578;2023-03-01T04:48:45;11.63;;;10.27;;
47882;SDS011;37739;50.350;7.578;2023-03-01T04:51:12;11.23;;;8.90;;
47882;SDS011;37739;50.350;7.578;2023-03-01T04:53:41;9.40;;;8.50;;
47882;SDS011;37739;50.350;7.578;2023-03-01T04:56:07;8.80;;;7.70;;
47882;SDS011;37739;50.350;7.578;2023-03-01T04:58:33;10.03;;;9.00;;
47882;SDS011;37739;50.350;7.578;2023-03-01T05:00:58;11.40;;;10.03;;
47882;SDS011;37739;50.350;7.578;2023-03-01T05:03:26;10.80;;;9.70;;
47882;SDS011;37739;50.350;7.578;2023-03-01T05:05:54;9.10;;;8.30;;
47882;SDS011;37739;50.350;7.578;2023-03-01T05:08:24;11.03;;;8.80;;
47882;SDS011;37739;50.350;7.578;2023-03-01T05:10:50;8.47;;;7.37;;
47882;SDS011;37739;50.350;7.578;2023-03-01T05:13:20;9.63;;;8.63;;
47882;SDS011;37739;50.350;7.578;2023-03-01T05:15:56;10.77;;;9.67;;
47882;SDS011;37739;50.350;7.578;2023-03-01T05:18:23;10.10;;;9.17;;
47882;SDS011;37739;50.350;7.578;2023-03-01T05:20:53;10.43;;;9.40;;
47882;SDS011;37739;50.350;7.578;2023-03-01T05:23:21;9.20;;;8.20;;
47882;SDS011;37739;50.350;7.578;2023-03-01T05:25:47;11.10;;;9.53;;
47882;SDS011;37739;50.350;7.578;2023-03-01T05:28:17;11.00;;;9.90;;
47882;SDS011;37739;50.350;7.578;2023-03-01T05:30:44;9.80;;;8.80;;
47882;SDS011;37739;50.350;7.578;2023-03-01T05:33:10;11.93;;;9.80;;
47882;SDS011;37739;50.350;7.578;2023-03-01T05:35:39;11.30;;;9.20;;
47882;SDS011;37739;50.350;7.578;2023-03-01T05:38:08;10.40;;;9.13;;
47882;SDS011;37739;50.350;7.578;2023-03-01T05:40:38;10.53;;;9.43;;
47882;SDS011;37739;50.350;7.578;2023-03-01T05:43:06;8.13;;;7.03;;
47882;SDS011;37739;50.350;7.578;2023-03-01T05:45:35;11.67;;;10.20;;
47882;SDS011;37739;50.350;7.578;2023-03-01T05:48:02;11.13;;;9.67;;
47882;SDS011;37739;50.350;7.578;2023-03-01T05:50:31;11.87;;;10.07;;
47882;SDS011;37739;50.350;7.578;2023-03-01T05:52:59;10.00;;;9.00;;
47882;SDS011;37739;50.350;7.578;2023-03-01T05:55:33;13.93;;;11.40;;
47882;SDS011;37739;50.350;7.578;2023-03-01T05:58:02;11.80;;;10.53;;
47882;SDS011;37739;50.350;7.578;2023-03-01T06:00:29;10.57;;;9.57;;
47882;SDS011;37739;50.350;7.578;2023-03-01T06:02:58;12.53;;;10.57;;
47882;SDS011;37739;50.350;7.578;2023-03-01T06:05:26;13.87;;;11.10;;
47882;SDS011;37739;50.350;7.578;2023-03-01T06:07:52;8.70;;;7.80;;
47882;SDS011;37739;50.350;7.578;2023-03-01T06:10:19;12.00;;;10.27;;
47882;SDS011;37739;50.350;7.578;2023-03-01T06:12:47;10.97;;;8.87;;
47882;SDS011;37739;50.350;7.578;2023-03-01T06:15:13;13.27;;;10.03;;
47882;SDS011;37739;50.350;7.578;2023-03-01T06:17:40;10.60;;;9.50;;
47882;SDS011;37739;50.350;7.578;2023-03-01T06:20:11;12.80;;;11.13;;
47882;SDS011;37739;50.350;7.578;2023-03-01T06:22:37;12.80;;;10.47;;
47882;SDS011;37739;50.350;7.578;2023-03-01T06:25:03;11.63;;;10.43;;
47882;SDS011;37739;50.350;7.578;2023-03-01T06:27:35;10.73;;;9.63;;
47882;SDS011;37739;50.350;7.578;2023-03-01T06:30:00;8.80;;;7.90;;
47882;SDS011;37739;50.350;7.578;2023-03-01T06:32:26;7.07;;;6.37;;
47882;SDS011;37739;50.350;7.578;2023-03-01T06:34:51;11.00;;;8.73;;
47882;SDS011;37739;50.350;7.578;2023-03-01T06:37:17;8.23;;;7.43;;
47882;SDS011;37739;50.350;7.578;2023-03-01T06:39:44;11.47;;;9.63;;
47882;SDS011;37739;50.350;7.578;2023-03-01T06:42:10;11.57;;;10.37;;
47882;SDS011;37739;50.350;7.578;2023-03-01T06:44:36;10.33;;;9.27;;
47882;SDS011;37739;50.350;7.578;2023-03-01T06:47:02;11.00;;;9.67;;
47882;SDS011;37739;50.350;7.578;2023-03-01T06:49:28;10.43;;;8.50;;
47882;SDS011;37739;50.350;7.578;2023-03-01T06:51:53;11.30;;;9.87;;
47882;SDS011;37739;50.350;7.578;2023-03-01T06:54:19;11.47;;;8.90;;
47882;SDS011;37739;50.350;7.578;2023-03-01T06:56:47;10.03;;;8.50;;
47882;SDS011;37739;50.350;7.578;2023-03-01T06:59:15;8.47;;;7.40;;
47882;SDS011;37739;50.350;7.578;2023-03-01T07:01:41;10.10;;;9.00;;
47882;SDS011;37739;50.350;7.578;2023-03-01T07:04:07;11.27;;;10.03;;
47882;SDS011;37739;50.350;7.578;2023-03-01T07:06:35;12.70;;;10.53;;
47882;SDS011;37739;50.350;7.578;2023-03-01T07:09:01;10.70;;;9.33;;
47882;SDS011;37739;50.350;7.578;2023-03-01T07:11:26;13.63;;;12.20;;
47882;SDS011;37739;50.350;7.578;2023-03-01T07:13:54;13.13;;;10.37;;
47882;SDS011;37739;50.350;7.578;2023-03-01T07:16:21;12.50;;;11.20;;
47882;SDS011;37739;50.350;7.578;2023-03-01T07:18:47;11.60;;;10.07;;
47882;SDS011;37739;50.350;7.578;2023-03-01T07:21:13;13.23;;;11.00;;
47882;SDS011;37739;50.350;7.578;2023-03-01T07:23:39;12.80;;;11.43;;
47882;SDS011;37739;50.350;7.578;2023-03-01T07:26:07;11.67;;;10.47;;
47882;SDS011;37739;50.350;7.578;2023-03-01T07:28:35;11.80;;;10.07;;
47882;SDS011;37739;50.350;7.578;2023-03-01T07:31:03;13.30;;;11.50;;
47882;SDS011;37739;50.350;7.578;2023-03-01T07:33:32;14.40;;;12.17;;
47882;SDS011;37739;50.350;7.578;2023-03-01T07:36:01;12.37;;;11.03;;
47882;SDS011;37739;50.350;7.578;2023-03-01T07:38:28;13.57;;;11.10;;
47882;SDS011;37739;50.350;7.578;2023-03-01T07:40:57;11.70;;;10.10;;
47882;SDS011;37739;50.350;7.578;2023-03-01T07:43:24;13.13;;;11.80;;
47882;SDS011;37739;50.350;7.578;2023-03-01T07:45:49;14.90;;;11.50;;
47882;SDS011;37739;50.350;7.578;2023-03-01T07:48:14;10.77;;;9.67;;
47882;SDS011;37739;50.350;7.578;2023-03-01T07:50:42;14.70;;;12.53;;
47882;SDS011;37739;50.350;7.578;2023-03-01T07:53:08;13.00;;;11.30;;
47882;SDS011;37739;50.350;7.578;2023-03-01T07:55:35;11.30;;;10.13;;
47882;SDS011;37739;50.350;7.578;2023-03-01T07:58:01;12.90;;;11.17;;
47882;SDS011;37739;50.350;7.578;2023-03-01T08:00:26;13.00;;;11.33;;
47882;SDS011;37739;50.350;7.578;2023-03-01T08:02:54;11.67;;;10.13;;
47882;SDS011;37739;50.350;7.578;2023-03-01T08:05:22;10.77;;;8.23;;
47882;SDS011;37739;50.350;7.578;2023-03-01T08:07:49;12.57;;;11.27;;
47882;SDS011;37739;50.350;7.578;2023-03-01T08:10:17;13.17;;;11.23;;
47882;SDS011;37739;50.350;7.578;2023-03-01T08:12:42;12.50;;;11.20;;
47882;SDS011;37739;50.350;7.578;2023-03-01T08:15:10;18.40;;;12.90;;
47882;SDS011;37739;50.350;7.578;2023-03-01T08:17:36;17.90;;;15.47;;
47882;SDS011;37739;50.350;7.578;2023-03-01T08:20:01;23.73;;;19.90;;
47882;SDS011;37739;50.350;7.578;2023-03-01T08:22:29;16.10;;;14.07;;
47882;SDS011;37739;50.350;7.578;2023-03-01T08:24:54;16.87;;;13.80;;
47882;SDS011;37739;50.350;7.578;2023-03-01T08:27:24;13.30;;;11.90;;
47882;SDS011;37739;50.350;7.578;2023-03-01T08:29:49;14.50;;;12.17;;
47882;SDS011;37739;50.350;7.578;2023-03-01T08:32:17;14.27;;;10.87;;
47882;SDS011;37739;50.350;7.578;2023-03-01T08:34:45;12.37;;;11.10;;
47882;SDS011;37739;50.350;7.578;2023-03-01T08:37:13;15.10;;;12.10;;
47882;SDS011;37739;50.350;7.578;2023-03-01T08:39:41;13.67;;;12.20;;
47882;SDS011;37739;50.350;7.578;2023-03-01T08:42:09;15.50;;;12.60;;
47882;SDS011;37739;50.350;7.578;2023-03-01T08:44:39;15.47;;;12.80;;
47882;SDS011;37739;50.350;7.578;2023-03-01T08:47:04;17.00;;;12.63;;
47882;SDS011;37739;50.350;7.578;2023-03-01T08:49:29;16.90;;;12.80;;
47882;SDS011;37739;50.350;7.578;2023-03-01T08:51:57;17.03;;;14.80;;
47882;SDS011;37739;50.350;7.578;2023-03-01T08:54:25;12.60;;;10.43;;
47882;SDS011;37739;50.350;7.578;2023-03-01T08:56:50;12.10;;;10.33;;
47882;SDS011;37739;50.350;7.578;2023-03-01T08:59:18;12.97;;;10.13;;
47882;SDS011;37739;50.350;7.578;2023-03-01T09:01:46;15.23;;;13.70;;
47882;SDS011;37739;50.350;7.578;2023-03-01T09:04:12;16.60;;;12.87;;
47882;SDS011;37739;50.350;7.578;2023-03-01T09:06:39;13.13;;;11.73;;
47882;SDS011;37739;50.350;7.578;2023-03-01T09:09:05;17.90;;;14.50;;
47882;SDS011;37739;50.350;7.578;2023-03-01T09:11:31;13.90;;;10.77;;
47882;SDS011;37739;50.350;7.578;2023-03-01T09:13:58;15.67;;;13.97;;
47882;SDS011;37739;50.350;7.578;2023-03-01T09:16:24;13.30;;;11.90;;
47882;SDS011;37739;50.350;7.578;2023-03-01T09:18:52;14.50;;;11.30;;
47882;SDS011;37739;50.350;7.578;2023-03-01T09:21:19;17.17;;;14.40;;
47882;SDS011;37739;50.350;7.578;2023-03-01T09:23:48;14.60;;;12.43;;
47882;SDS011;37739;50.350;7.578;2023-03-01T09:26:20;14.50;;;13.10;;
47882;SDS011;37739;50.350;7.578;2023-03-01T09:28:49;12.77;;;11.13;;
47882;SDS011;37739;50.350;7.578;2023-03-01T09:31:17;12.70;;;11.50;;
47882;SDS011;37739;50.350;7.578;2023-03-01T09:33:47;14.57;;;13.07;;
47882;SDS011;37739;50.350;7.578;2023-03-01T09:36:15;15.00;;;13.10;;
47882;SDS011;37739;50.350;7.578;2023-03-01T09:38:42;13.60;;;12.30;;
47882;SDS011;37739;50.350;7.578;2023-03-01T09:41:18;15.63;;;13.30;;
47882;SDS011;37739;50.350;7.578;2023-03-01T09:44:10;15.73;;;13.07;;
47882;SDS011;37739;50.350;7.578;2023-03-01T09:46:43;13.17;;;11.77;;
47882;SDS011;37739;50.350;7.578;2023-03-01T09:49:31;17.73;;;12.97;;
47882;SDS011;37739;50.350;7.578;2023-03-01T09:52:03;12.80;;;11.40;;
47882;SDS011;37739;50.350;7.578;2023-03-01T09:54:53;13.77;;;12.43;;
47882;SDS011;37739;50.350;7.578;2023-03-01T09:57:20;14.80;;;13.27;;
47882;SDS011;37739;50.350;7.578;2023-03-01T10:07:53;15.10;;;13.50;;
47882;SDS011;37739;50.350;7.578;2023-03-01T10:10:35;17.20;;;14.50;;
47882;SDS011;37739;50.350;7.578;2023-03-01T10:13:17;14.60;;;13.20;;
47882;SDS011;37739;50.350;7.578;2023-03-01T10:16:03;14.50;;;13.00;;
47882;SDS011;37739;50.350;7.578;2023-03-01T10:18:36;19.30;;;16.03;;
47882;SDS011;37739;50.350;7.578;2023-03-01T10:21:13;14.40;;;12.90;;
47882;SDS011;37739;50.350;7.578;2023-03-01T10:23:41;14.60;;;13.10;;
47882;SDS011;37739;50.350;7.578;2023-03-01T10:26:12;16.70;;;13.90;;
47882;SDS011;37739;50.350;7.578;2023-03-01T10:31:18;15.10;;;13.40;;
47882;SDS011;37739;50.350;7.578;2023-03-01T10:33:55;13.77;;;12.37;;
47882;SDS011;37739;50.350;7.578;2023-03-01T10:36:22;15.10;;;11.30;;
47882;SDS011;37739;50.350;7.578;2023-03-01T10:38:53;12.67;;;11.13;;
47882;SDS011;37739;50.350;7.578;2023-03-01T10:41:24;14.37;;;12.80;;
47882;SDS011;37739;50.350;7.578;2023-03-01T10:43:55;14.03;;;12.47;;
47882;SDS011;37739;50.350;7.578;2023-03-01T10:49:07;13.50;;;12.03;;
47882;SDS011;37739;50.350;7.578;2023-03-01T10:51:40;14.90;;;13.43;;
47882;SDS011;37739;50.350;7.578;2023-03-01T10:54:31;14.23;;;13.00;;
47882;SDS011;37739;50.350;7.578;2023-03-01T10:57:01;12.17;;;11.07;;
47882;SDS011;37739;50.350;7.578;2023-03-01T10:59:32;11.30;;;10.13;;
47882;SDS011;37739;50.350;7.578;2023-03-01T11:02:14;12.70;;;11.43;;
47882;SDS011;37739;50.350;7.578;2023-03-01T11:07:22;11.60;;;10.37;;
47882;SDS011;37739;50.350;7.578;2023-03-01T11:09:49;14.60;;;12.90;;
47882;SDS011;37739;50.350;7.578;2023-03-01T11:12:15;13.00;;;11.63;;
47882;SDS011;37739;50.350;7.578;2023-03-01T11:14:47;11.53;;;10.27;;
47882;SDS011;37739;50.350;7.578;2023-03-01T11:22:38;12.73;;;11.43;;
47882;SDS011;37739;50.350;7.578;2023-03-01T11:25:13;12.43;;;11.20;;
47882;SDS011;37739;50.350;7.578;2023-03-01T11:27:43;11.83;;;10.60;;
47882;SDS011;37739;50.350;7.578;2023-03-01T11:30:24;11.47;;;10.30;;
47882;SDS011;37739;50.350;7.578;2023-03-01T11:35:40;10.67;;;9.57;;
47882;SDS011;37739;50.350;7.578;2023-03-01T11:38:33;9.97;;;9.07;;
47882;SDS011;37739;50.350;7.578;2023-03-01T11:41:12;11.63;;;10.53;;
47882;SDS011;37739;50.350;7.578;2023-03-01T11:43:50;11.97;;;10.77;;
47882;SDS011;37739;50.350;7.578;2023-03-01T11:57:07;10.50;;;9.50;;
47882;SDS011;37739;50.350;7.578;2023-03-01T12:05:14;11.67;;;10.57;;
47882;SDS011;37739;50.350;7.578;2023-03-01T12:08:12;10.30;;;9.20;;
47882;SDS011;37739;50.350;7.578;2023-03-01T12:16:22;11.30;;;9.50;;
47882;SDS011;37739;50.350;7.578;2023-03-01T12:24:33;10.60;;;9.67;;
47882;SDS011;37739;50.350;7.578;2023-03-01T12:41:00;9.47;;;8.50;;
47882;SDS011;37739;50.350;7.578;2023-03-01T12:48:59;7.70;;;6.90;;
47882;SDS011;37739;50.350;7.578;2023-03-01T12:51:33;10.30;;;8.63;;
47882;SDS011;37739;50.350;7.578;2023-03-01T12:54:07;8.63;;;7.83;;
47882;SDS011;37739;50.350;7.578;2023-03-01T12:56:40;7.43;;;6.60;;
47882;SDS011;37739;50.350;7.578;2023-03-01T13:02:20;8.77;;;7.97;;
47882;SDS011;37739;50.350;7.578;2023-03-01T13:11:14;9.20;;;8.33;;
47882;SDS011;37739;50.350;7.578;2023-03-01T13:13:36;10.60;;;8.53;;
47882;SDS011;37739;50.350;7.578;2023-03-01T13:19:17;9.03;;;7.70;;
47882;SDS011;37739;50.350;7.578;2023-03-01T13:21:57;8.20;;;7.40;;
47882;SDS011;37739;50.350;7.578;2023-03-01T13:24:28;7.33;;;6.40;;
47882;SDS011;37739;50.350;7.578;2023-03-01T13:29:47;6.63;;;6.03;;
47882;SDS011;37739;50.350;7.578;2023-03-01T13:32:28;6.73;;;5.87;;
47882;SDS011;37739;50.350;7.578;2023-03-01T13:37:42;6.23;;;5.73;;
47882;SDS011;37739;50.350;7.578;2023-03-01T13:42:43;6.97;;;6.37;;
47882;SDS011;37739;50.350;7.578;2023-03-01T13:45:39;5.80;;;5.23;;
47882;SDS011;37739;50.350;7.578;2023-03-01T13:48:23;5.57;;;5.03;;
47882;SDS011;37739;50.350;7.578;2023-03-01T13:50:53;5.60;;;5.10;;
47882;SDS011;37739;50.350;7.578;2023-03-01T13:53:23;6.50;;;5.90;;
47882;SDS011;37739;50.350;7.578;2023-03-01T13:55:51;5.87;;;5.17;;
47882;SDS011;37739;50.350;7.578;2023-03-01T13:58:23;5.30;;;4.80;;
47882;SDS011;37739;50.350;7.578;2023-03-01T14:01:34;6.60;;;5.83;;
47882;SDS011;37739;50.350;7.578;2023-03-01T14:03:50;6.03;;;5.43;;
47882;SDS011;37739;50.350;7.578;2023-03-01T14:06:19;5.87;;;5.23;;
47882;SDS011;37739;50.350;7.578;2023-03-01T14:08:46;5.57;;;5.00;;
47882;SDS011;37739;50.350;7.578;2023-03-01T14:11:29;5.87;;;5.33;;
47882;SDS011;37739;50.350;7.578;2023-03-01T14:16:37;6.10;;;5.50;;
47882;SDS011;37739;50.350;7.578;2023-03-01T14:19:28;5.33;;;4.93;;
47882;SDS011;37739;50.350;7.578;2023-03-01T14:22:14;5.50;;;5.00;;
47882;SDS011;37739;50.350;7.578;2023-03-01T14:24:58;4.83;;;4.43;;
47882;SDS011;37739;50.350;7.578;2023-03-01T14:27:27;5.27;;;4.77;;
47882;SDS011;37739;50.350;7.578;2023-03-01T14:30:00;7.10;;;4.37;;
47882;SDS011;37739;50.350;7.578;2023-03-01T14:32:37;6.10;;;5.40;;
47882;SDS011;37739;50.350;7.578;2023-03-01T14:35:03;6.27;;;5.67;;
47882;SDS011;37739;50.350;7.578;2023-03-01T14:37:43;6.77;;;5.90;;
47882;SDS011;37739;50.350;7.578;2023-03-01T14:40:20;6.53;;;5.93;;
47882;SDS011;37739;50.350;7.578;2023-03-01T14:42:53;6.80;;;5.13;;
47882;SDS011;37739;50.350;7.578;2023-03-01T14:45:20;6.30;;;5.07;;
47882;SDS011;37739;50.350;7.578;2023-03-01T14:47:47;5.60;;;4.70;;
47882;SDS011;37739;50.350;7.578;2023-03-01T14:50:21;7.73;;;4.60;;
47882;SDS011;37739;50.350;7.578;2023-03-01T14:52:59;7.70;;;4.57;;
47882;SDS011;37739;50.350;7.578;2023-03-01T14:55:30;8.27;;;4.17;;
47882;SDS011;37739;50.350;7.578;2023-03-01T14:57:56;5.10;;;4.57;;
47882;SDS011;37739;50.350;7.578;2023-03-01T15:00:27;5.37;;;4.87;;
47882;SDS011;37739;50.350;7.578;2023-03-01T15:02:55;6.07;;;4.23;;
47882;SDS011;37739;50.350;7.578;2023-03-01T15:05:30;5.60;;;4.27;;
47882;SDS011;37739;50.350;7.578;2023-03-01T15:08:01;5.67;;;5.13;;
47882;SDS011;37739;50.350;7.578;2023-03-01T15:10:29;8.40;;;5.17;;
47882;SDS011;37739;50.350;7.578;2023-03-01T15:13:09;5.00;;;4.50;;
47882;SDS011;37739;50.350;7.578;2023-03-01T15:15:44;5.00;;;4.50;;
47882;SDS011;37739;50.350;7.578;2023-03-01T15:18:18;4.63;;;4.17;;
47882;SDS011;37739;50.350;7.578;2023-03-01T15:20:48;5.17;;;4.67;;
47882;SDS011;37739;50.350;7.578;2023-03-01T15:23:36;5.57;;;4.47;;
47882;SDS011;37739;50.350;7.578;2023-03-01T15:26:06;4.80;;;4.10;;
47882;SDS011;37739;50.350;7.578;2023-03-01T15:28:49;5.63;;;4.93;;
47882;SDS011;37739;50.350;7.578;2023-03-01T15:31:23;4.63;;;4.23;;
47882;SDS011;37739;50.350;7.578;2023-03-01T15:34:06;5.00;;;4.50;;
47882;SDS011;37739;50.350;7.578;2023-03-01T15:36:46;5.80;;;4.50;;
47882;SDS011;37739;50.350;7.578;2023-03-01T15:42:02;5.27;;;4.60;;
47882;SDS011;37739;50.350;7.578;2023-03-01T15:44:30;4.70;;;4.23;;
47882;SDS011;37739;50.350;7.578;2023-03-01T15:46:58;4.90;;;4.40;;
47882;SDS011;37739;50.350;7.578;2023-03-01T15:49:35;5.50;;;4.20;;
47882;SDS011;37739;50.350;7.578;2023-03-01T15:52:02;4.83;;;4.33;;
47882;SDS011;37739;50.350;7.578;2023-03-01T15:54:30;5.17;;;4.63;;
47882;SDS011;37739;50.350;7.578;2023-03-01T15:56:58;6.20;;;5.20;;
47882;SDS011;37739;50.350;7.578;2023-03-01T15:59:26;6.60;;;4.80;;
47882;SDS011;37739;50.350;7.578;2023-03-01T16:01:54;5.23;;;4.20;;
47882;SDS011;37739;50.350;7.578;2023-03-01T16:04:22;5.03;;;4.53;;
47882;SDS011;37739;50.350;7.578;2023-03-01T16:06:48;5.70;;;4.47;;
47882;SDS011;37739;50.350;7.578;2023-03-01T16:09:23;6.90;;;4.53;;
47882;SDS011;37739;50.350;7.578;2023-03-01T16:11:50;5.47;;;4.97;;
47882;SDS011;37739;50.350;7.578;2023-03-01T16:14:18;4.43;;;3.93;;
47882;SDS011;37739;50.350;7.578;2023-03-01T16:16:44;5.83;;;5.07;;
47882;SDS011;37739;50.350;7.578;2023-03-01T16:19:10;4.80;;;4.30;;
47882;SDS011;37739;50.350;7.578;2023-03-01T16:21:36;5.63;;;5.03;;
47882;SDS011;37739;50.350;7.578;2023-03-01T16:24:02;5.20;;;4.70;;
47882;SDS011;37739;50.350;7.578;2023-03-01T16:26:28;6.03;;;3.97;;
47882;SDS011;37739;50.350;7.578;2023-03-01T16:28:54;5.20;;;4.50;;
47882;SDS011;37739;50.350;7.578;2023-03-01T16:31:23;6.23;;;4.23;;
47882;SDS011;37739;50.350;7.578;2023-03-01T16:33:53;4.83;;;4.20;;
47882;SDS011;37739;50.350;7.578;2023-03-01T16:36:20;5.27;;;4.77;;
47882;SDS011;37739;50.350;7.578;2023-03-01T16:38:49;5.23;;;4.73;;
47882;SDS011;37739;50.350;7.578;2023-03-01T16:41:17;5.67;;;5.13;;
47882;SDS011;37739;50.350;7.578;2023-03-01T16:43:44;5.90;;;5.37;;